createdAt,value
2023-02-24T00:00:31.101Z,1002.44
2023-02-24T00:01:31.072Z,1002.43
2023-02-24T00:02:31.080Z,1002.42
2023-02-24T00:03:31.056Z,1002.40
2023-02-24T00:04:31.039Z,1002.39
2023-02-24T00:05:31.019Z,1002.38
2023-02-24T00:06:31.013Z,1002.37
2023-02-24T00:07:31.027Z,1002.37
2023-02-24T00:08:30.973Z,1002.37
2023-02-24T00:09:30.990Z,1002.37
2023-02-24T00:10:30.977Z,1002.37
2023-02-24T00:11:30.933Z,1002.37
2023-02-24T00:12:30.951Z,1002.35
2023-02-24T00:13:30.948Z,1002.33
2023-02-24T00:14:30.934Z,1002.32
2023-02-24T00:15:30.895Z,1002.31
2023-02-24T00:16:31.012Z,1002.32
2023-02-24T00:17:31.003Z,1002.32
2023-02-24T00:18:30.887Z,1002.32
2023-02-24T00:19:30.899Z,1002.31
2023-02-24T00:20:30.857Z,1002.31
2023-02-24T00:21:30.849Z,1002.30
2023-02-24T00:22:30.834Z,1002.30
2023-02-24T00:23:30.819Z,1002.30
2023-02-24T00:24:30.817Z,1002.29
2023-02-24T00:25:30.850Z,1002.29
2023-02-24T00:26:30.807Z,1002.30
2023-02-24T00:27:30.768Z,1002.28
2023-02-24T00:28:30.779Z,1002.27
2023-02-24T00:29:30.753Z,1002.24
2023-02-24T00:30:30.772Z,1002.22
2023-02-24T00:31:30.965Z,1002.19
2023-02-24T00:32:31.023Z,1002.17
2023-02-24T00:33:30.797Z,1002.17
2023-02-24T00:34:30.728Z,1002.17
2023-02-24T00:35:30.717Z,1002.17
2023-02-24T00:36:30.802Z,1002.17
2023-02-24T00:37:30.686Z,1002.17
2023-02-24T00:38:30.698Z,1002.17
2023-02-24T00:39:30.858Z,1002.17
2023-02-24T00:40:30.825Z,1002.17
2023-02-24T00:41:30.677Z,1002.17
2023-02-24T00:42:30.639Z,1002.18
2023-02-24T00:43:30.617Z,1002.18
2023-02-24T00:44:30.651Z,1002.19
2023-02-24T00:45:30.602Z,1002.20
2023-02-24T00:46:30.640Z,1002.21
2023-02-24T00:47:30.604Z,1002.21
2023-02-24T00:48:30.571Z,1002.22
2023-02-24T00:49:30.562Z,1002.21
2023-02-24T00:50:30.582Z,1002.20
2023-02-24T00:51:30.566Z,1002.18
2023-02-24T00:52:30.535Z,1002.16
2023-02-24T00:53:30.523Z,1002.15
2023-02-24T00:54:30.474Z,1002.13
2023-02-24T00:55:30.507Z,1002.13
2023-02-24T00:56:30.519Z,1002.13
2023-02-24T00:57:30.491Z,1002.13
2023-02-24T00:58:30.503Z,1002.14
2023-02-24T00:59:30.468Z,1002.14
2023-02-24T01:00:30.453Z,1002.13
2023-02-24T01:01:30.456Z,1002.11
2023-02-24T01:02:30.445Z,1002.09
2023-02-24T01:03:30.398Z,1002.08
2023-02-24T01:04:30.430Z,1002.08
2023-02-24T01:05:30.428Z,1002.08
2023-02-24T01:06:30.394Z,1002.07
2023-02-24T01:07:30.401Z,1002.07
2023-02-24T01:08:30.372Z,1002.06
2023-02-24T01:09:30.409Z,1002.04
2023-02-24T01:10:30.355Z,1002.02
2023-02-24T01:11:30.334Z,1002.00
2023-02-24T01:12:30.348Z,1001.99
2023-02-24T01:13:30.306Z,1001.96
2023-02-24T01:14:30.339Z,1001.94
2023-02-24T01:15:30.302Z,1001.91
2023-02-24T01:16:30.290Z,1001.89
2023-02-24T01:17:30.304Z,1001.86
2023-02-24T01:18:30.264Z,1001.84
2023-02-24T01:19:30.248Z,1001.83
2023-02-24T01:20:30.472Z,1001.82
2023-02-24T01:21:30.234Z,1001.82
2023-02-24T01:22:30.229Z,1001.80
2023-02-24T01:23:30.256Z,1001.79
2023-02-24T01:24:30.196Z,1001.78
2023-02-24T01:25:30.205Z,1001.77
2023-02-24T01:26:30.229Z,1001.76
2023-02-24T01:27:30.211Z,1001.75
2023-02-24T01:28:30.185Z,1001.73
2023-02-24T01:29:30.265Z,1001.70
2023-02-24T01:30:30.169Z,1001.68
2023-02-24T01:31:30.226Z,1001.65
2023-02-24T01:32:30.339Z,1001.64
2023-02-24T01:33:30.142Z,1001.62
2023-02-24T01:34:30.136Z,1001.60
2023-02-24T01:35:30.106Z,1001.59
2023-02-24T01:36:30.107Z,1001.58
2023-02-24T01:37:36.591Z,1001.57
2023-02-24T01:38:30.089Z,1001.55
2023-02-24T01:39:30.071Z,1001.54
2023-02-24T01:40:30.041Z,1001.53
2023-02-24T01:41:30.040Z,1001.51
2023-02-24T01:42:30.045Z,1001.49
2023-02-24T01:43:30.017Z,1001.45
2023-02-24T01:44:30.026Z,1001.41
2023-02-24T01:45:30.013Z,1001.40
2023-02-24T01:46:30.048Z,1001.42
2023-02-24T01:47:29.967Z,1001.44
2023-02-24T01:48:30.007Z,1001.45
2023-02-24T01:49:29.963Z,1001.46
2023-02-24T01:50:29.969Z,1001.47
2023-02-24T01:51:29.971Z,1001.46
2023-02-24T01:52:29.920Z,1001.44
2023-02-24T01:53:29.898Z,1001.41
2023-02-24T01:54:29.952Z,1001.37
2023-02-24T01:55:29.985Z,1001.33
2023-02-24T01:56:29.888Z,1001.29
2023-02-24T01:57:29.878Z,1001.27
2023-02-24T01:58:29.886Z,1001.25
2023-02-24T01:59:29.838Z,1001.23
2023-02-24T02:00:29.861Z,1001.23
2023-02-24T02:01:29.850Z,1001.22
2023-02-24T02:02:29.980Z,1001.22
2023-02-24T02:03:29.824Z,1001.21
2023-02-24T02:04:29.827Z,1001.22
2023-02-24T02:05:29.790Z,1001.21
2023-02-24T02:06:29.780Z,1001.21
2023-02-24T02:07:29.791Z,1001.20
2023-02-24T02:08:29.763Z,1001.18
2023-02-24T02:09:29.747Z,1001.16
2023-02-24T02:10:29.743Z,1001.14
2023-02-24T02:11:29.724Z,1001.11
2023-02-24T02:12:29.738Z,1001.08
2023-02-24T02:13:29.855Z,1001.06
2023-02-24T02:14:29.715Z,1001.03
2023-02-24T02:15:29.690Z,1001.01
2023-02-24T02:16:29.795Z,1001.00
2023-02-24T02:17:29.710Z,1001.00
2023-02-24T02:18:29.669Z,1000.99
2023-02-24T02:19:29.706Z,1001.00
2023-02-24T02:20:29.668Z,1000.99
2023-02-24T02:21:29.640Z,1000.96
2023-02-24T02:22:29.617Z,1000.95
2023-02-24T02:23:29.600Z,1000.94
2023-02-24T02:24:29.611Z,1000.92
2023-02-24T02:25:29.597Z,1000.91
2023-02-24T02:26:29.559Z,1000.90
2023-02-24T02:27:29.578Z,1000.87
2023-02-24T02:28:29.574Z,1000.85
2023-02-24T02:29:29.569Z,1000.83
2023-02-24T02:30:29.531Z,1000.82
2023-02-24T02:31:29.696Z,1000.80
2023-02-24T02:32:29.683Z,1000.79
2023-02-24T02:33:29.503Z,1000.76
2023-02-24T02:34:29.503Z,1000.74
2023-02-24T02:35:29.474Z,1000.72
2023-02-24T02:36:29.493Z,1000.69
2023-02-24T02:37:29.448Z,1000.67
2023-02-24T02:38:29.462Z,1000.65
2023-02-24T02:39:29.450Z,1000.63
2023-02-24T02:40:29.445Z,1000.61
2023-02-24T02:41:29.431Z,1000.59
2023-02-24T02:42:29.410Z,1000.57
2023-02-24T02:43:29.389Z,1000.56
2023-02-24T02:44:29.406Z,1000.55
2023-02-24T02:45:29.425Z,1000.52
2023-02-24T02:46:29.380Z,1000.50
2023-02-24T02:47:29.382Z,1000.47
2023-02-24T02:48:29.374Z,1000.45
2023-02-24T02:49:29.341Z,1000.44
2023-02-24T02:50:35.942Z,1000.43
2023-02-24T02:51:29.896Z,1000.42
2023-02-24T02:52:29.331Z,1000.43
2023-02-24T02:53:29.323Z,1000.42
2023-02-24T02:54:29.285Z,1000.43
2023-02-24T02:55:29.291Z,1000.43
2023-02-24T02:56:29.283Z,1000.41
2023-02-24T02:57:29.246Z,1000.41
2023-02-24T02:58:29.268Z,1000.40
2023-02-24T02:59:29.249Z,1000.41
2023-02-24T03:00:29.353Z,1000.42
2023-02-24T03:01:29.408Z,1000.42
2023-02-24T03:02:29.204Z,1000.41
2023-02-24T03:03:29.195Z,1000.39
2023-02-24T03:04:29.240Z,1000.36
2023-02-24T03:05:29.182Z,1000.35
2023-02-24T03:06:29.190Z,1000.34
2023-02-24T03:07:29.193Z,1000.34
2023-02-24T03:08:29.141Z,1000.33
2023-02-24T03:09:29.135Z,1000.34
2023-02-24T03:10:29.141Z,1000.36
2023-02-24T03:11:29.112Z,1000.36
2023-02-24T03:12:29.101Z,1000.35
2023-02-24T03:13:29.107Z,1000.33
2023-02-24T03:14:29.114Z,1000.31
2023-02-24T03:15:29.081Z,1000.29
2023-02-24T03:16:29.122Z,1000.27
2023-02-24T03:17:29.072Z,1000.24
2023-02-24T03:18:29.162Z,1000.22
2023-02-24T03:19:29.020Z,1000.18
2023-02-24T03:20:29.065Z,1000.15
2023-02-24T03:21:29.024Z,1000.13
2023-02-24T03:22:29.007Z,1000.12
2023-02-24T03:23:29.009Z,1000.11
2023-02-24T03:24:29.012Z,1000.11
2023-02-24T03:25:29.011Z,1000.11
2023-02-24T03:26:28.987Z,1000.11
2023-02-24T03:27:28.932Z,1000.11
2023-02-24T03:28:28.953Z,1000.11
2023-02-24T03:29:28.943Z,1000.10
2023-02-24T03:30:28.941Z,1000.10
2023-02-24T03:31:28.947Z,1000.07
2023-02-24T03:32:29.049Z,1000.06
2023-02-24T03:33:28.889Z,1000.05
2023-02-24T03:34:28.911Z,1000.05
2023-02-24T03:35:28.927Z,1000.03
2023-02-24T03:36:28.892Z,1000.01
2023-02-24T03:37:28.839Z,999.99
2023-02-24T03:38:28.885Z,999.98
2023-02-24T03:39:28.825Z,999.98
2023-02-24T03:40:28.830Z,999.97
2023-02-24T03:41:28.905Z,999.96
2023-02-24T03:42:28.803Z,999.96
2023-02-24T03:43:28.779Z,999.96
2023-02-24T03:44:28.861Z,999.96
2023-02-24T03:45:28.784Z,999.95
2023-02-24T03:46:28.842Z,999.93
2023-02-24T03:47:28.769Z,999.91
2023-02-24T03:48:28.769Z,999.90
2023-02-24T03:49:28.737Z,999.90
2023-02-24T03:50:28.722Z,999.89
2023-02-24T03:51:28.707Z,999.90
2023-02-24T03:52:28.728Z,999.90
2023-02-24T03:53:28.705Z,999.89
2023-02-24T03:54:28.695Z,999.87
2023-02-24T03:55:28.670Z,999.87
2023-02-24T03:56:28.692Z,999.88
2023-02-24T03:57:28.668Z,999.89
2023-02-24T03:58:28.674Z,999.87
2023-02-24T03:59:28.647Z,999.86
2023-02-24T04:00:28.632Z,999.84
2023-02-24T04:01:28.617Z,999.83
2023-02-24T04:02:28.643Z,999.82
2023-02-24T04:03:28.608Z,999.80
2023-02-24T04:04:28.607Z,999.77
2023-02-24T04:05:28.540Z,999.76
2023-02-24T04:06:28.568Z,999.74
2023-02-24T04:07:28.555Z,999.74
2023-02-24T04:08:28.532Z,999.75
2023-02-24T04:09:28.561Z,999.74
2023-02-24T04:10:28.534Z,999.72
2023-02-24T04:11:28.498Z,999.73
2023-02-24T04:12:28.531Z,999.73
2023-02-24T04:13:28.499Z,999.75
2023-02-24T04:14:28.538Z,999.74
2023-02-24T04:15:28.551Z,999.73
2023-02-24T04:16:28.463Z,999.72
2023-02-24T04:17:28.512Z,999.73
2023-02-24T04:18:28.441Z,999.74
2023-02-24T04:19:28.447Z,999.74
2023-02-24T04:20:28.431Z,999.73
2023-02-24T04:21:28.410Z,999.73
2023-02-24T04:22:28.394Z,999.72
2023-02-24T04:23:28.386Z,999.72
2023-02-24T04:24:28.375Z,999.71
2023-02-24T04:25:28.391Z,999.70
2023-02-24T04:26:28.386Z,999.68
2023-02-24T04:27:28.334Z,999.68
2023-02-24T04:28:28.339Z,999.68
2023-02-24T04:29:28.327Z,999.68
2023-02-24T04:30:28.333Z,999.68
2023-02-24T04:31:28.532Z,999.69
2023-02-24T04:32:28.445Z,999.68
2023-02-24T04:33:28.322Z,999.65
2023-02-24T04:34:28.264Z,999.65
2023-02-24T04:35:28.285Z,999.63
2023-02-24T04:36:28.246Z,999.62
2023-02-24T04:37:28.257Z,999.61
2023-02-24T04:38:28.244Z,999.59
2023-02-24T04:39:28.249Z,999.58
2023-02-24T04:40:28.212Z,999.58
2023-02-24T04:41:28.235Z,999.57
2023-02-24T04:42:28.193Z,999.57
2023-02-24T04:43:28.216Z,999.55
2023-02-24T04:44:28.208Z,999.54
2023-02-24T04:45:28.240Z,999.52
2023-02-24T04:46:28.181Z,999.50
2023-02-24T04:47:28.181Z,999.48
2023-02-24T04:48:28.132Z,999.46
2023-02-24T04:49:28.127Z,999.44
2023-02-24T04:50:28.115Z,999.41
2023-02-24T04:51:28.094Z,999.41
2023-02-24T04:52:28.105Z,999.37
2023-02-24T04:53:28.116Z,999.34
2023-02-24T04:54:28.069Z,999.33
2023-02-24T04:55:28.071Z,999.31
2023-02-24T04:56:28.049Z,999.29
2023-02-24T04:57:28.054Z,999.28
2023-02-24T04:58:28.138Z,999.24
2023-02-24T04:59:28.062Z,999.25
2023-02-24T05:00:28.020Z,999.22
2023-02-24T05:01:28.017Z,999.20
2023-02-24T05:02:27.992Z,999.18
2023-02-24T05:03:28.391Z,999.17
2023-02-24T05:04:28.034Z,999.16
2023-02-24T05:05:27.979Z,999.12
2023-02-24T05:06:27.977Z,999.10
2023-02-24T05:07:27.953Z,999.09
2023-02-24T05:08:27.937Z,999.08
2023-02-24T05:09:27.928Z,999.07
2023-02-24T05:10:28.106Z,999.05
2023-02-24T05:11:27.921Z,999.02
2023-02-24T05:12:27.883Z,999.02
2023-02-24T05:13:28.093Z,998.98
2023-02-24T05:14:27.895Z,998.95
2023-02-24T05:15:27.885Z,998.92
2023-02-24T05:16:27.864Z,998.89
2023-02-24T05:17:27.848Z,998.87
2023-02-24T05:18:27.848Z,998.85
2023-02-24T05:19:27.844Z,998.83
2023-02-24T05:20:27.836Z,998.82
2023-02-24T05:21:27.802Z,998.81
2023-02-24T05:22:27.801Z,998.80
2023-02-24T05:23:27.821Z,998.78
2023-02-24T05:24:27.777Z,998.76
2023-02-24T05:25:27.795Z,998.74
2023-02-24T05:26:27.757Z,998.72
2023-02-24T05:27:27.738Z,998.71
2023-02-24T05:28:27.765Z,998.69
2023-02-24T05:29:27.725Z,998.67
2023-02-24T05:30:27.782Z,998.66
2023-02-24T05:31:27.913Z,998.65
2023-02-24T05:32:27.870Z,998.62
2023-02-24T05:33:27.679Z,998.60
2023-02-24T05:34:27.715Z,998.59
2023-02-24T05:35:27.669Z,998.60
2023-02-24T05:36:27.638Z,998.61
2023-02-24T05:37:27.640Z,998.59
2023-02-24T05:38:27.736Z,998.58
2023-02-24T05:39:27.751Z,998.55
2023-02-24T05:40:27.614Z,998.54
2023-02-24T05:41:27.625Z,998.54
2023-02-24T05:42:27.589Z,998.51
2023-02-24T05:43:27.571Z,998.49
2023-02-24T05:44:27.553Z,998.44
2023-02-24T05:45:27.563Z,998.42
2023-02-24T05:46:27.593Z,998.39
2023-02-24T05:47:27.536Z,998.40
2023-02-24T05:48:27.526Z,998.37
2023-02-24T05:49:27.519Z,998.35
2023-02-24T05:50:27.527Z,998.35
2023-02-24T05:51:27.493Z,998.33
2023-02-24T05:52:27.476Z,998.33
2023-02-24T05:53:27.472Z,998.32
2023-02-24T05:54:27.476Z,998.31
2023-02-24T05:55:27.457Z,998.28
2023-02-24T05:56:27.459Z,998.26
2023-02-24T05:57:27.443Z,998.24
2023-02-24T05:58:27.421Z,998.22
2023-02-24T05:59:27.408Z,998.20
2023-02-24T06:00:27.425Z,998.19
2023-02-24T06:01:27.406Z,998.17
2023-02-24T06:02:28.011Z,998.15
2023-02-24T06:03:27.344Z,998.12
2023-02-24T06:04:27.310Z,998.12
2023-02-24T06:05:27.302Z,998.10
2023-02-24T06:06:27.311Z,998.09
2023-02-24T06:07:27.335Z,998.07
2023-02-24T06:08:27.305Z,998.05
2023-02-24T06:09:27.278Z,998.04
2023-02-24T06:10:27.247Z,998.02
2023-02-24T06:11:27.318Z,998.01
2023-02-24T06:12:27.268Z,998.02
2023-02-24T06:13:27.213Z,997.97
2023-02-24T06:14:27.231Z,997.96
2023-02-24T06:15:27.202Z,997.95
2023-02-24T06:16:27.219Z,997.95
2023-02-24T06:17:27.215Z,997.94
2023-02-24T06:18:27.166Z,997.93
2023-02-24T06:19:27.192Z,997.90
2023-02-24T06:20:27.139Z,997.91
2023-02-24T06:21:27.131Z,997.89
2023-02-24T06:22:27.134Z,997.86
2023-02-24T06:23:27.145Z,997.85
2023-02-24T06:24:27.087Z,997.81
2023-02-24T06:25:27.093Z,997.77
2023-02-24T06:26:27.079Z,997.75
2023-02-24T06:27:27.077Z,997.74
2023-02-24T06:28:27.064Z,997.72
2023-02-24T06:29:27.058Z,997.68
2023-02-24T06:30:27.114Z,997.67
2023-02-24T06:31:27.062Z,997.67
2023-02-24T06:32:27.274Z,997.67
2023-02-24T06:33:27.022Z,997.66
2023-02-24T06:34:26.997Z,997.67
2023-02-24T06:35:27.022Z,997.68
2023-02-24T06:36:26.968Z,997.66
2023-02-24T06:37:27.000Z,997.66
2023-02-24T06:38:26.989Z,997.65
2023-02-24T06:39:27.000Z,997.66
2023-02-24T06:40:26.948Z,997.64
2023-02-24T06:41:26.935Z,997.65
2023-02-24T06:42:26.937Z,997.65
2023-02-24T06:43:26.921Z,997.62
2023-02-24T06:44:26.903Z,997.62
2023-02-24T06:45:26.909Z,997.61
2023-02-24T06:46:26.915Z,997.61
2023-02-24T06:47:26.958Z,997.61
2023-02-24T06:48:26.853Z,997.59
2023-02-24T06:49:26.892Z,997.57
2023-02-24T06:50:26.837Z,997.54
2023-02-24T06:51:26.852Z,997.56
2023-02-24T06:52:26.822Z,997.55
2023-02-24T06:53:26.834Z,997.54
2023-02-24T06:54:26.841Z,997.55
2023-02-24T06:55:26.806Z,997.57
2023-02-24T06:56:26.817Z,997.57
2023-02-24T06:57:26.804Z,997.57
2023-02-24T06:58:26.774Z,997.54
2023-02-24T06:59:26.803Z,997.53
2023-02-24T07:00:26.749Z,997.51
2023-02-24T07:01:26.930Z,997.51
2023-02-24T07:02:26.714Z,997.52
2023-02-24T07:03:26.758Z,997.53
2023-02-24T07:04:28.742Z,997.51
2023-02-24T07:05:26.708Z,997.49
2023-02-24T07:06:26.702Z,997.47
2023-02-24T07:07:26.701Z,997.46
2023-02-24T07:08:26.654Z,997.44
2023-02-24T07:09:26.647Z,997.40
2023-02-24T07:10:26.641Z,997.41
2023-02-24T07:11:26.626Z,997.41
2023-02-24T07:12:26.651Z,997.40
2023-02-24T07:13:26.617Z,997.36
2023-02-24T07:14:26.610Z,997.33
2023-02-24T07:15:26.609Z,997.31
2023-02-24T07:16:26.606Z,997.30
2023-02-24T07:17:26.585Z,997.29
2023-02-24T07:18:26.596Z,997.27
2023-02-24T07:19:26.587Z,997.24
2023-02-24T07:20:26.537Z,997.22
2023-02-24T07:21:26.552Z,997.21
2023-02-24T07:22:26.510Z,997.20
2023-02-24T07:23:26.550Z,997.19
2023-02-24T07:24:26.487Z,997.17
2023-02-24T07:25:26.491Z,997.17
2023-02-24T07:26:26.473Z,997.14
2023-02-24T07:27:26.483Z,997.13
2023-02-24T07:28:26.462Z,997.10
2023-02-24T07:29:26.460Z,997.10
2023-02-24T07:30:26.582Z,997.09
2023-02-24T07:31:26.855Z,997.09
2023-02-24T07:32:26.469Z,997.06
2023-02-24T07:33:26.436Z,997.05
2023-02-24T07:34:26.404Z,997.02
2023-02-24T07:35:26.398Z,996.98
2023-02-24T07:36:26.378Z,996.97
2023-02-24T07:37:26.395Z,996.96
2023-02-24T07:38:26.357Z,996.94
2023-02-24T07:39:26.343Z,996.91
2023-02-24T07:40:26.352Z,996.91
2023-02-24T07:41:26.394Z,996.88
2023-02-24T07:42:26.310Z,996.87
2023-02-24T07:43:26.332Z,996.86
2023-02-24T07:44:26.329Z,996.84
2023-02-24T07:45:26.403Z,996.79
2023-02-24T07:46:26.309Z,996.79
2023-02-24T07:47:26.314Z,996.78
2023-02-24T07:48:26.234Z,996.78
2023-02-24T07:49:26.266Z,996.79
2023-02-24T07:50:26.227Z,996.80
2023-02-24T07:51:26.276Z,996.76
2023-02-24T07:52:26.229Z,996.78
2023-02-24T07:53:26.210Z,996.75
2023-02-24T07:54:26.183Z,996.73
2023-02-24T07:55:26.181Z,996.73
2023-02-24T07:56:26.165Z,996.68
2023-02-24T07:57:26.172Z,996.69
2023-02-24T07:58:26.167Z,996.69
2023-02-24T07:59:26.151Z,996.69
2023-02-24T08:00:26.117Z,996.67
2023-02-24T08:01:26.138Z,996.68
2023-02-24T08:02:26.192Z,996.69
2023-02-24T08:03:26.125Z,996.67
2023-02-24T08:04:26.080Z,996.68
2023-02-24T08:05:26.126Z,996.65
2023-02-24T08:06:26.064Z,996.63
2023-02-24T08:07:26.098Z,996.62
2023-02-24T08:08:26.036Z,996.60
2023-02-24T08:09:26.070Z,996.62
2023-02-24T08:10:26.034Z,996.61
2023-02-24T08:11:26.060Z,996.60
2023-02-24T08:12:26.027Z,996.55
2023-02-24T08:13:26.002Z,996.54
2023-02-24T08:14:26.015Z,996.55
2023-02-24T08:15:26.021Z,996.56
2023-02-24T08:16:26.013Z,996.50
2023-02-24T08:17:26.000Z,996.52
2023-02-24T08:18:25.994Z,996.49
2023-02-24T08:19:25.961Z,996.46
2023-02-24T08:20:26.001Z,996.44
2023-02-24T08:21:25.915Z,996.41
2023-02-24T08:22:25.948Z,996.39
2023-02-24T08:23:25.941Z,996.39
2023-02-24T08:24:25.914Z,996.34
2023-02-24T08:25:25.885Z,996.34
2023-02-24T08:26:25.947Z,996.31
2023-02-24T08:27:25.891Z,996.33
2023-02-24T08:28:25.875Z,996.32
2023-02-24T08:29:25.839Z,996.29
2023-02-24T08:30:25.833Z,996.27
2023-02-24T08:31:26.287Z,996.27
2023-02-24T08:32:25.926Z,996.22
2023-02-24T08:33:25.825Z,996.23
2023-02-24T08:34:25.868Z,996.25
2023-02-24T08:35:25.790Z,996.25
2023-02-24T08:36:25.777Z,996.20
2023-02-24T08:37:25.786Z,996.19
2023-02-24T08:38:26.644Z,996.15
2023-02-24T08:39:25.762Z,996.14
2023-02-24T08:40:25.751Z,996.12
2023-02-24T08:41:25.714Z,996.12
2023-02-24T08:42:25.730Z,996.09
2023-02-24T08:43:25.706Z,996.11
2023-02-24T08:44:25.717Z,996.07
2023-02-24T08:45:25.689Z,996.07
2023-02-24T08:46:25.789Z,996.05
2023-02-24T08:47:25.694Z,996.01
2023-02-24T08:48:25.678Z,996.00
2023-02-24T08:49:25.651Z,995.99
2023-02-24T08:50:25.648Z,995.99
2023-02-24T08:51:25.666Z,995.98
2023-02-24T08:52:25.695Z,995.96
2023-02-24T08:53:25.597Z,995.98
2023-02-24T08:54:25.591Z,995.94
2023-02-24T08:55:25.607Z,995.89
2023-02-24T08:56:25.573Z,995.96
2023-02-24T08:57:25.609Z,995.92
2023-02-24T08:58:25.563Z,995.90
2023-02-24T08:59:25.573Z,995.86
2023-02-24T09:00:25.592Z,995.84
2023-02-24T09:01:26.003Z,995.77
2023-02-24T09:02:25.544Z,995.76
2023-02-24T09:03:25.528Z,995.76
2023-02-24T09:04:25.520Z,995.77
2023-02-24T09:05:25.566Z,995.76
2023-02-24T09:06:25.584Z,995.71
2023-02-24T09:07:25.497Z,995.69
2023-02-24T09:08:25.484Z,995.68
2023-02-24T09:09:25.459Z,995.70
2023-02-24T09:10:25.468Z,995.67
2023-02-24T09:11:25.447Z,995.65
2023-02-24T09:12:25.486Z,995.70
2023-02-24T09:13:25.485Z,995.60
2023-02-24T09:14:27.982Z,995.65
2023-02-24T09:15:25.400Z,995.62
2023-02-24T09:16:25.511Z,995.64
2023-02-24T09:17:25.353Z,995.66
2023-02-24T09:18:25.368Z,995.63
2023-02-24T09:19:25.350Z,995.62
2023-02-24T09:20:25.381Z,995.63
2023-02-24T09:21:25.316Z,995.53
2023-02-24T09:22:25.381Z,995.55
2023-02-24T09:23:25.308Z,995.50
2023-02-24T09:24:25.314Z,995.50
2023-02-24T09:25:25.297Z,995.45
2023-02-24T09:26:25.278Z,995.42
2023-02-24T09:27:25.262Z,995.42
2023-02-24T09:28:25.346Z,995.45
2023-02-24T09:29:25.284Z,995.41
2023-02-24T09:30:25.296Z,995.43
2023-02-24T09:31:25.736Z,995.40
2023-02-24T09:32:25.322Z,995.40
2023-02-24T09:33:25.214Z,995.43
2023-02-24T09:34:25.204Z,995.43
2023-02-24T09:35:25.206Z,995.38
2023-02-24T09:36:25.174Z,995.39
2023-02-24T09:37:25.165Z,995.40
2023-02-24T09:38:25.152Z,995.33
2023-02-24T09:39:25.154Z,995.35
2023-02-24T09:40:25.139Z,995.35
2023-02-24T09:41:25.118Z,995.37
2023-02-24T09:42:25.198Z,995.28
2023-02-24T09:43:25.089Z,995.30
2023-02-24T09:44:25.117Z,995.27
2023-02-24T09:45:25.116Z,995.32
2023-02-24T09:46:25.236Z,995.29
2023-02-24T09:47:25.079Z,995.26
2023-02-24T09:48:25.059Z,995.23
2023-02-24T09:49:25.062Z,995.19
2023-02-24T09:50:55.000Z,995.18
2023-02-24T09:51:25.050Z,995.14
2023-02-24T09:52:25.008Z,995.09
2023-02-24T09:53:25.011Z,995.10
2023-02-24T09:54:25.022Z,995.03
2023-02-24T09:55:25.194Z,995.04
2023-02-24T09:56:24.995Z,994.99
2023-02-24T09:57:24.987Z,994.95
2023-02-24T09:58:29.357Z,994.97
2023-02-24T09:59:24.967Z,994.93
2023-02-24T10:00:24.932Z,994.93
2023-02-24T10:01:25.389Z,994.91
2023-02-24T10:02:24.940Z,994.92
2023-02-24T10:03:24.898Z,994.89
2023-02-24T10:04:24.914Z,994.87
2023-02-24T10:05:24.887Z,994.85
2023-02-24T10:06:24.871Z,994.85
2023-02-24T10:07:24.884Z,994.81
2023-02-24T10:08:24.853Z,994.83
2023-02-24T10:09:24.870Z,994.80
2023-02-24T10:10:24.825Z,994.79
2023-02-24T10:11:24.834Z,994.81
2023-02-24T10:12:24.828Z,994.79
2023-02-24T10:13:24.792Z,994.76
2023-02-24T10:14:27.404Z,994.76
2023-02-24T10:15:24.799Z,994.72
2023-02-24T10:16:24.842Z,994.74
2023-02-24T10:17:24.936Z,994.70
2023-02-24T10:18:24.757Z,994.68
2023-02-24T10:19:24.735Z,994.66
2023-02-24T10:20:24.756Z,994.64
2023-02-24T10:21:24.705Z,994.65
2023-02-24T10:22:24.725Z,994.60
2023-02-24T10:23:24.714Z,994.59
2023-02-24T10:24:24.689Z,994.61
2023-02-24T10:25:24.665Z,994.59
2023-02-24T10:26:24.655Z,994.57
2023-02-24T10:27:24.653Z,994.58
2023-02-24T10:28:24.659Z,994.55
2023-02-24T10:29:24.638Z,994.56
2023-02-24T10:30:24.721Z,994.54
2023-02-24T10:31:25.609Z,994.54
2023-02-24T10:32:24.782Z,994.50
2023-02-24T10:33:24.622Z,994.48
2023-02-24T10:34:24.593Z,994.48
2023-02-24T10:35:24.575Z,994.43
2023-02-24T10:36:24.567Z,994.44
2023-02-24T10:37:29.265Z,994.46
2023-02-24T10:38:24.551Z,994.43
2023-02-24T10:39:24.538Z,994.47
2023-02-24T10:40:24.562Z,994.44
2023-02-24T10:41:24.508Z,994.44
2023-02-24T10:42:24.506Z,994.42
2023-02-24T10:43:24.534Z,994.42
2023-02-24T10:44:24.515Z,994.39
2023-02-24T10:45:24.487Z,994.36
2023-02-24T10:46:38.637Z,994.34
2023-02-24T10:47:24.460Z,994.35
2023-02-24T10:48:29.567Z,994.35
2023-02-24T10:49:24.432Z,994.35
2023-02-24T10:50:24.436Z,994.34
2023-02-24T10:51:24.637Z,994.34
2023-02-24T10:52:24.404Z,994.28
2023-02-24T10:53:24.413Z,994.24
2023-02-24T10:54:24.436Z,994.24
2023-02-24T10:55:24.394Z,994.19
2023-02-24T10:56:24.367Z,994.18
2023-02-24T10:57:24.348Z,994.22
2023-02-24T10:58:24.346Z,994.21
2023-02-24T10:59:24.450Z,994.15
2023-02-24T11:00:24.349Z,994.09
2023-02-24T11:01:24.691Z,994.12
2023-02-24T11:02:24.409Z,994.09
2023-02-24T11:03:32.427Z,994.12
2023-02-24T11:04:24.317Z,994.11
2023-02-24T11:05:24.274Z,994.09
2023-02-24T11:06:24.275Z,994.05
2023-02-24T11:07:24.254Z,994.11
2023-02-24T11:08:24.242Z,994.01
2023-02-24T11:09:24.268Z,994.03
2023-02-24T11:10:24.220Z,994.02
2023-02-24T11:11:24.293Z,993.99
2023-02-24T11:12:24.220Z,993.91
2023-02-24T11:13:24.187Z,993.89
2023-02-24T11:14:24.216Z,993.88
2023-02-24T11:15:24.166Z,993.85
2023-02-24T11:16:24.243Z,993.80
2023-02-24T11:17:24.151Z,993.80
2023-02-24T11:18:24.143Z,993.81
2023-02-24T11:19:24.133Z,993.76
2023-02-24T11:20:24.140Z,993.72
2023-02-24T11:21:24.250Z,993.69
2023-02-24T11:22:24.109Z,993.71
2023-02-24T11:23:24.077Z,993.73
2023-02-24T11:24:24.086Z,993.70
2023-02-24T11:25:24.072Z,993.67
2023-02-24T11:26:24.060Z,993.65
2023-02-24T11:27:24.044Z,993.63
2023-02-24T11:28:24.053Z,993.58
2023-02-24T11:29:24.027Z,993.57
2023-02-24T11:30:24.064Z,993.53
2023-02-24T11:31:24.692Z,993.52
2023-02-24T11:32:24.070Z,993.47
2023-02-24T11:33:23.971Z,993.48
2023-02-24T11:34:23.979Z,993.44
2023-02-24T11:35:23.989Z,993.42
2023-02-24T11:36:23.982Z,993.39
2023-02-24T11:37:23.931Z,993.33
2023-02-24T11:38:23.947Z,993.30
2023-02-24T11:39:23.948Z,993.30
2023-02-24T11:40:23.987Z,993.27
2023-02-24T11:41:24.254Z,993.25
2023-02-24T11:42:23.904Z,993.25
2023-02-24T11:43:23.906Z,993.27
2023-02-24T11:44:23.898Z,993.26
2023-02-24T11:45:23.857Z,993.13
2023-02-24T11:46:23.888Z,993.22
2023-02-24T11:47:23.844Z,993.18
2023-02-24T11:48:23.839Z,993.15
2023-02-24T11:49:23.821Z,993.13
2023-02-24T11:50:23.835Z,993.13
2023-02-24T11:51:24.044Z,993.11
2023-02-24T11:52:23.810Z,993.09
2023-02-24T11:53:23.826Z,993.08
2023-02-24T11:54:23.783Z,993.03
2023-02-24T11:55:23.764Z,993.03
2023-02-24T11:56:23.826Z,992.92
2023-02-24T11:57:23.744Z,992.97
2023-02-24T11:58:23.772Z,992.95
2023-02-24T11:59:24.244Z,992.94
2023-02-24T12:00:23.732Z,992.94
2023-02-24T12:01:24.230Z,992.93
2023-02-24T12:02:23.727Z,992.90
2023-02-24T12:03:23.716Z,992.82
2023-02-24T12:04:24.387Z,992.87
2023-02-24T12:05:23.737Z,992.83
2023-02-24T12:06:23.646Z,992.81
2023-02-24T12:07:23.726Z,992.76
2023-02-24T12:08:23.658Z,992.78
2023-02-24T12:09:23.666Z,992.80
2023-02-24T12:10:24.266Z,992.79
2023-02-24T12:11:24.235Z,992.73
2023-02-24T12:12:23.619Z,992.74
2023-02-24T12:13:23.592Z,992.71
2023-02-24T12:14:23.603Z,992.70
2023-02-24T12:15:23.543Z,992.66
2023-02-24T12:16:23.749Z,992.65
2023-02-24T12:17:23.525Z,992.62
2023-02-24T12:18:23.548Z,992.71
2023-02-24T12:19:23.932Z,992.64
2023-02-24T12:20:23.629Z,992.58
2023-02-24T12:21:23.890Z,992.61